sensor_id;sensor_type;location;lat;lon;timestamp;pressure;altitude;pressure_sealevel;temperature;humidity
3968;BME280;9221;42.646;23.380;2023-03-20T00:00:22;94846.75;;;7.96;64.00
3968;BME280;9221;42.646;23.380;2023-03-20T00:02:49;94777.81;;;7.40;64.35
3968;BME280;9221;42.646;23.380;2023-03-20T00:05:16;94771.91;;;7.27;64.34
3968;BME280;9221;42.646;23.380;2023-03-20T00:07:43;94823.88;;;7.66;64.47
3968;BME280;9221;42.646;23.380;2023-03-20T00:10:09;94757.22;;;7.24;64.60
3968;BME280;9221;42.646;23.380;2023-03-20T00:12:35;94823.28;;;7.62;65.04
3968;BME280;9221;42.646;23.380;2023-03-20T00:15:02;94777.72;;;6.98;64.63
3968;BME280;9221;42.646;23.380;2023-03-20T00:17:29;94827.50;;;7.74;64.41
3968;BME280;9221;42.646;23.380;2023-03-20T00:19:54;94824.03;;;7.53;65.64
3968;BME280;9221;42.646;23.380;2023-03-20T00:22:20;94836.69;;;7.48;65.55
3968;BME280;9221;42.646;23.380;2023-03-20T00:24:46;94831.44;;;7.48;65.04
3968;BME280;9221;42.646;23.380;2023-03-20T00:27:13;94805.03;;;7.28;64.73
3968;BME280;9221;42.646;23.380;2023-03-20T00:29:39;94805.56;;;7.22;65.59
3968;BME280;9221;42.646;23.380;2023-03-20T00:32:10;94776.31;;;6.94;65.21
3968;BME280;9221;42.646;23.380;2023-03-20T00:34:36;94812.97;;;7.17;65.73
3968;BME280;9221;42.646;23.380;2023-03-20T00:37:01;94748.50;;;6.70;66.54
3968;BME280;9221;42.646;23.380;2023-03-20T00:39:27;94807.41;;;6.99;66.51
3968;BME280;9221;42.646;23.380;2023-03-20T00:42:00;94814.69;;;6.95;66.31
3968;BME280;9221;42.646;23.380;2023-03-20T00:44:39;94807.53;;;6.97;66.69
3968;BME280;9221;42.646;23.380;2023-03-20T00:47:16;94741.38;;;6.50;66.57
3968;BME280;9221;42.646;23.380;2023-03-20T00:49:43;94806.94;;;6.93;66.57
3968;BME280;9221;42.646;23.380;2023-03-20T00:52:10;94798.94;;;6.95;66.42
3968;BME280;9221;42.646;23.380;2023-03-20T00:54:37;94741.34;;;6.61;66.20
3968;BME280;9221;42.646;23.380;2023-03-20T00:57:08;94802.00;;;7.11;65.58
3968;BME280;9221;42.646;23.380;2023-03-20T00:59:40;94766.47;;;6.75;65.66
3968;BME280;9221;42.646;23.380;2023-03-20T01:02:07;94734.44;;;6.71;64.88
3968;BME280;9221;42.646;23.380;2023-03-20T01:04:37;94730.03;;;6.72;64.66
3968;BME280;9221;42.646;23.380;2023-03-20T01:07:04;94728.94;;;6.74;64.49
3968;BME280;9221;42.646;23.380;2023-03-20T01:09:29;94803.53;;;7.14;64.32
3968;BME280;9221;42.646;23.380;2023-03-20T01:11:55;94791.25;;;7.26;64.56
3968;BME280;9221;42.646;23.380;2023-03-20T01:14:21;94794.13;;;7.44;64.03
3968;BME280;9221;42.646;23.380;2023-03-20T01:16:46;94784.84;;;7.61;64.13
3968;BME280;9221;42.646;23.380;2023-03-20T01:19:13;94752.59;;;7.28;63.61
3968;BME280;9221;42.646;23.380;2023-03-20T01:21:39;94764.75;;;7.29;63.09
3968;BME280;9221;42.646;23.380;2023-03-20T01:24:05;94782.38;;;7.27;63.19
3968;BME280;9221;42.646;23.380;2023-03-20T01:26:34;94743.69;;;6.87;63.83
3968;BME280;9221;42.646;23.380;2023-03-20T01:29:01;94724.69;;;6.62;64.26
3968;BME280;9221;42.646;23.380;2023-03-20T01:31:26;94726.84;;;6.57;64.77
3968;BME280;9221;42.646;23.380;2023-03-20T01:33:51;94765.63;;;6.74;65.04
3968;BME280;9221;42.646;23.380;2023-03-20T01:36:21;94817.81;;;6.77;65.23
3968;BME280;9221;42.646;23.380;2023-03-20T01:38:55;94811.63;;;6.67;66.08
3968;BME280;9221;42.646;23.380;2023-03-20T01:41:23;94798.06;;;6.62;66.33
3968;BME280;9221;42.646;23.380;2023-03-20T01:43:49;94793.88;;;6.59;66.61
3968;BME280;9221;42.646;23.380;2023-03-20T01:46:23;94773.88;;;6.24;66.93
3968;BME280;9221;42.646;23.380;2023-03-20T01:51:16;94797.59;;;6.46;67.18
3968;BME280;9221;42.646;23.380;2023-03-20T01:53:42;94729.88;;;6.07;67.88
3968;BME280;9221;42.646;23.380;2023-03-20T01:56:11;94843.06;;;6.44;67.42
3968;BME280;9221;42.646;23.380;2023-03-20T01:58:42;94776.63;;;6.23;68.45
3968;BME280;9221;42.646;23.380;2023-03-20T02:01:11;94789.38;;;6.39;68.36
3968;BME280;9221;42.646;23.380;2023-03-20T02:03:38;94803.06;;;6.42;67.89
3968;BME280;9221;42.646;23.380;2023-03-20T02:06:05;94821.03;;;6.24;68.42
3968;BME280;9221;42.646;23.380;2023-03-20T02:08:36;94815.22;;;6.21;68.50
3968;BME280;9221;42.646;23.380;2023-03-20T02:11:05;94659.03;;;5.29;68.93
3968;BME280;9221;42.646;23.380;2023-03-20T02:13:31;94787.81;;;6.14;68.95
3968;BME280;9221;42.646;23.380;2023-03-20T02:16:10;94741.59;;;5.79;69.23
3968;BME280;9221;42.646;23.380;2023-03-20T02:18:37;94790.69;;;5.99;69.04
3968;BME280;9221;42.646;23.380;2023-03-20T02:36:11;94796.84;;;6.09;68.33
3968;BME280;9221;42.646;23.380;2023-03-20T02:39:01;94726.22;;;5.63;68.29
3968;BME280;9221;42.646;23.380;2023-03-20T02:41:37;94813.72;;;5.94;68.51
3968;BME280;9221;42.646;23.380;2023-03-20T02:58:14;94778.94;;;5.69;69.51
3968;BME280;9221;42.646;23.380;2023-03-20T03:01:04;94777.03;;;5.71;69.54
3968;BME280;9221;42.646;23.380;2023-03-20T03:08:49;94750.72;;;5.62;69.45
3968;BME280;9221;42.646;23.380;2023-03-20T03:11:17;94778.94;;;5.69;69.94
3968;BME280;9221;42.646;23.380;2023-03-20T03:13:50;94712.75;;;5.33;69.98
3968;BME280;9221;42.646;23.380;2023-03-20T03:16:26;94721.53;;;5.21;70.14
3968;BME280;9221;42.646;23.380;2023-03-20T03:19:14;94773.81;;;5.56;70.66
3968;BME280;9221;42.646;23.380;2023-03-20T03:21:42;94750.34;;;5.43;70.85
3968;BME280;9221;42.646;23.380;2023-03-20T03:24:30;94790.31;;;5.57;71.07
3968;BME280;9221;42.646;23.380;2023-03-20T03:26:58;94772.94;;;5.56;71.07
3968;BME280;9221;42.646;23.380;2023-03-20T03:29:29;94836.22;;;5.61;70.89
3968;BME280;9221;42.646;23.380;2023-03-20T03:31:55;94771.28;;;5.55;70.70
3968;BME280;9221;42.646;23.380;2023-03-20T03:34:22;94726.75;;;5.21;70.54
3968;BME280;9221;42.646;23.380;2023-03-20T03:39:38;94822.16;;;5.51;70.99
3968;BME280;9221;42.646;23.380;2023-03-20T03:42:18;94811.47;;;5.54;71.18
3968;BME280;9221;42.646;23.380;2023-03-20T03:45:18;94786.06;;;5.67;70.24
3968;BME280;9221;42.646;23.380;2023-03-20T03:50:18;94802.50;;;5.81;70.25
3968;BME280;9221;42.646;23.380;2023-03-20T03:52:48;94804.66;;;5.75;69.08
3968;BME280;9221;42.646;23.380;2023-03-20T03:55:21;94761.94;;;5.75;69.50
3968;BME280;9221;42.646;23.380;2023-03-20T03:57:54;94792.50;;;5.74;69.16
3968;BME280;9221;42.646;23.380;2023-03-20T04:00:23;94742.03;;;5.50;69.69
3968;BME280;9221;42.646;23.380;2023-03-20T04:02:53;94766.00;;;5.32;70.24
3968;BME280;9221;42.646;23.380;2023-03-20T04:05:20;94767.44;;;5.36;71.11
3968;BME280;9221;42.646;23.380;2023-03-20T04:07:51;94775.16;;;5.38;70.99
3968;BME280;9221;42.646;23.380;2023-03-20T04:10:17;94837.91;;;5.38;70.70
3968;BME280;9221;42.646;23.380;2023-03-20T04:12:43;94780.28;;;5.39;70.88
3968;BME280;9221;42.646;23.380;2023-03-20T04:15:10;94792.38;;;5.29;70.54
3968;BME280;9221;42.646;23.380;2023-03-20T04:17:36;94752.81;;;5.34;71.16
3968;BME280;9221;42.646;23.380;2023-03-20T04:20:03;94702.75;;;4.91;70.44
3968;BME280;9221;42.646;23.380;2023-03-20T04:22:29;94784.16;;;5.22;70.98
3968;BME280;9221;42.646;23.380;2023-03-20T04:24:55;94755.00;;;5.16;71.59
3968;BME280;9221;42.646;23.380;2023-03-20T04:27:21;94757.41;;;4.95;72.22
3968;BME280;9221;42.646;23.380;2023-03-20T04:29:46;94761.66;;;4.71;73.44
3968;BME280;9221;42.646;23.380;2023-03-20T04:32:12;94747.69;;;4.72;73.83
3968;BME280;9221;42.646;23.380;2023-03-20T04:34:37;94759.94;;;4.96;73.42
3968;BME280;9221;42.646;23.380;2023-03-20T04:37:03;94758.03;;;4.98;73.03
3968;BME280;9221;42.646;23.380;2023-03-20T04:39:29;94818.88;;;5.00;72.85
3968;BME280;9221;42.646;23.380;2023-03-20T04:41:55;94826.03;;;4.85;72.76
3968;BME280;9221;42.646;23.380;2023-03-20T04:44:21;94689.59;;;4.45;72.91
3968;BME280;9221;42.646;23.380;2023-03-20T04:46:46;94763.91;;;4.89;72.78
3968;BME280;9221;42.646;23.380;2023-03-20T04:49:11;94742.44;;;4.72;73.04
3968;BME280;9221;42.646;23.380;2023-03-20T04:51:37;94607.38;;;3.78;73.18
3968;BME280;9221;42.646;23.380;2023-03-20T04:54:02;94763.59;;;4.69;73.84
3968;BME280;9221;42.646;23.380;2023-03-20T04:56:28;94750.00;;;4.64;73.52
3968;BME280;9221;42.646;23.380;2023-03-20T04:58:53;94622.56;;;3.84;73.62
3968;BME280;9221;42.646;23.380;2023-03-20T05:01:18;94795.63;;;5.08;72.70
3968;BME280;9221;42.646;23.380;2023-03-20T05:03:44;94789.00;;;5.16;72.69
3968;BME280;9221;42.646;23.380;2023-03-20T05:06:09;94728.22;;;4.77;72.77
3968;BME280;9221;42.646;23.380;2023-03-20T05:08:35;94734.16;;;5.03;72.47
3968;BME280;9221;42.646;23.380;2023-03-20T05:11:01;94603.69;;;4.42;70.91
3968;BME280;9221;42.646;23.380;2023-03-20T05:13:26;94803.16;;;5.60;70.53
3968;BME280;9221;42.646;23.380;2023-03-20T05:15:51;94652.16;;;4.57;70.96
3968;BME280;9221;42.646;23.380;2023-03-20T05:18:17;94780.78;;;5.45;70.75
3968;BME280;9221;42.646;23.380;2023-03-20T05:20:42;94811.75;;;5.62;70.54
3968;BME280;9221;42.646;23.380;2023-03-20T05:23:08;94734.97;;;5.28;70.10
3968;BME280;9221;42.646;23.380;2023-03-20T05:25:33;94813.56;;;5.73;70.09
3968;BME280;9221;42.646;23.380;2023-03-20T05:27:59;94823.91;;;5.74;69.66
3968;BME280;9221;42.646;23.380;2023-03-20T05:30:24;94768.47;;;5.69;69.51
3968;BME280;9221;42.646;23.380;2023-03-20T05:32:51;94822.09;;;5.99;69.15
3968;BME280;9221;42.646;23.380;2023-03-20T05:35:17;94766.34;;;5.63;69.28
3968;BME280;9221;42.646;23.380;2023-03-20T05:37:42;94809.16;;;5.73;70.32
3968;BME280;9221;42.646;23.380;2023-03-20T05:40:11;94815.06;;;5.64;70.83
3968;BME280;9221;42.646;23.380;2023-03-20T05:42:37;94807.44;;;5.61;71.55
3968;BME280;9221;42.646;23.380;2023-03-20T05:45:03;94829.13;;;5.63;71.81
3968;BME280;9221;42.646;23.380;2023-03-20T05:47:28;94896.66;;;5.93;71.32
3968;BME280;9221;42.646;23.380;2023-03-20T05:49:54;94808.31;;;6.08;70.08
3968;BME280;9221;42.646;23.380;2023-03-20T05:52:19;94728.75;;;5.75;70.29
3968;BME280;9221;42.646;23.380;2023-03-20T05:54:45;94736.81;;;5.72;69.90
3968;BME280;9221;42.646;23.380;2023-03-20T05:57:11;94679.28;;;5.50;69.22
3968;BME280;9221;42.646;23.380;2023-03-20T05:59:37;94751.13;;;5.91;68.67
3968;BME280;9221;42.646;23.380;2023-03-20T06:02:02;94812.31;;;6.81;68.16
3968;BME280;9221;42.646;23.380;2023-03-20T06:04:28;94807.03;;;7.03;67.51
3968;BME280;9221;42.646;23.380;2023-03-20T06:06:53;94816.06;;;7.22;66.69
3968;BME280;9221;42.646;23.380;2023-03-20T06:09:18;94772.69;;;7.06;66.22
3968;BME280;9221;42.646;23.380;2023-03-20T06:11:44;94787.75;;;7.37;65.96
3968;BME280;9221;42.646;23.380;2023-03-20T06:14:10;94785.31;;;7.45;65.64
3968;BME280;9221;42.646;23.380;2023-03-20T06:16:36;94769.38;;;7.58;65.60
3968;BME280;9221;42.646;23.380;2023-03-20T06:19:01;94806.41;;;7.97;64.88
3968;BME280;9221;42.646;23.380;2023-03-20T06:21:27;94837.38;;;8.03;64.08
3968;BME280;9221;42.646;23.380;2023-03-20T06:23:52;94781.53;;;8.01;64.00
3968;BME280;9221;42.646;23.380;2023-03-20T06:26:19;94810.63;;;8.40;63.53
3968;BME280;9221;42.646;23.380;2023-03-20T06:28:45;94758.00;;;8.21;62.48
3968;BME280;9221;42.646;23.380;2023-03-20T06:31:11;94854.09;;;8.75;62.22
3968;BME280;9221;42.646;23.380;2023-03-20T06:33:36;94809.66;;;8.62;62.25
3968;BME280;9221;42.646;23.380;2023-03-20T06:36:02;94816.53;;;9.04;61.11
3968;BME280;9221;42.646;23.380;2023-03-20T06:38:28;94817.78;;;9.10;61.00
3968;BME280;9221;42.646;23.380;2023-03-20T06:40:53;94682.13;;;8.37;61.37
3968;BME280;9221;42.646;23.380;2023-03-20T06:43:19;94745.66;;;8.93;60.84
3968;BME280;9221;42.646;23.380;2023-03-20T06:45:44;94836.13;;;9.41;60.82
3968;BME280;9221;42.646;23.380;2023-03-20T06:48:10;94816.88;;;9.50;59.88
3968;BME280;9221;42.646;23.380;2023-03-20T06:50:36;94823.41;;;9.46;60.23
3968;BME280;9221;42.646;23.380;2023-03-20T06:53:01;94801.34;;;9.18;59.70
3968;BME280;9221;42.646;23.380;2023-03-20T06:55:27;94786.66;;;9.44;59.87
3968;BME280;9221;42.646;23.380;2023-03-20T06:57:52;94811.31;;;9.73;59.01
3968;BME280;9221;42.646;23.380;2023-03-20T07:00:18;94803.81;;;9.97;58.45
3968;BME280;9221;42.646;23.380;2023-03-20T07:02:44;94776.06;;;10.03;58.02
3968;BME280;9221;42.646;23.380;2023-03-20T07:05:10;94728.81;;;9.92;57.47
3968;BME280;9221;42.646;23.380;2023-03-20T07:07:35;94830.09;;;10.46;56.68
3968;BME280;9221;42.646;23.380;2023-03-20T07:10:01;94793.78;;;10.40;57.08
3968;BME280;9221;42.646;23.380;2023-03-20T07:12:28;94827.63;;;10.35;56.73
3968;BME280;9221;42.646;23.380;2023-03-20T07:14:54;94740.22;;;10.30;56.85
3968;BME280;9221;42.646;23.380;2023-03-20T07:17:20;94748.56;;;10.63;56.25
3968;BME280;9221;42.646;23.380;2023-03-20T07:19:46;94796.69;;;11.21;55.25
3968;BME280;9221;42.646;23.380;2023-03-20T07:22:24;94792.66;;;11.44;55.12
3968;BME280;9221;42.646;23.380;2023-03-20T07:24:50;94792.50;;;11.64;54.81
3968;BME280;9221;42.646;23.380;2023-03-20T07:27:16;94753.56;;;11.66;54.07
3968;BME280;9221;42.646;23.380;2023-03-20T07:29:42;94809.34;;;11.99;52.81
3968;BME280;9221;42.646;23.380;2023-03-20T07:32:07;94742.13;;;12.01;52.54
3968;BME280;9221;42.646;23.380;2023-03-20T07:34:33;94732.78;;;12.15;51.98
3968;BME280;9221;42.646;23.380;2023-03-20T07:36:58;94781.53;;;12.47;52.45
3968;BME280;9221;42.646;23.380;2023-03-20T07:39:24;94749.44;;;12.42;52.28
3968;BME280;9221;42.646;23.380;2023-03-20T07:41:49;94785.69;;;12.84;51.63
3968;BME280;9221;42.646;23.380;2023-03-20T07:44:15;94764.97;;;12.72;51.15
3968;BME280;9221;42.646;23.380;2023-03-20T07:46:43;94816.81;;;12.91;50.78
3968;BME280;9221;42.646;23.380;2023-03-20T07:49:14;94710.56;;;12.77;50.82
3968;BME280;9221;42.646;23.380;2023-03-20T07:51:45;94818.69;;;13.49;49.55
3968;BME280;9221;42.646;23.380;2023-03-20T07:54:11;94777.63;;;13.45;49.05
3968;BME280;9221;42.646;23.380;2023-03-20T07:56:36;94742.03;;;13.56;48.83
3968;BME280;9221;42.646;23.380;2023-03-20T07:59:02;94788.91;;;14.05;48.08
3968;BME280;9221;42.646;23.380;2023-03-20T08:01:27;94794.50;;;14.35;48.03
3968;BME280;9221;42.646;23.380;2023-03-20T08:03:53;94816.03;;;14.65;47.50
3968;BME280;9221;42.646;23.380;2023-03-20T08:06:19;94805.88;;;14.85;47.02
3968;BME280;9221;42.646;23.380;2023-03-20T08:08:44;94783.59;;;14.94;46.83
3968;BME280;9221;42.646;23.380;2023-03-20T08:11:11;94814.19;;;15.21;45.41
3968;BME280;9221;42.646;23.380;2023-03-20T08:13:37;94741.50;;;15.14;44.90
3968;BME280;9221;42.646;23.380;2023-03-20T08:16:03;94739.97;;;15.43;44.82
3968;BME280;9221;42.646;23.380;2023-03-20T08:18:28;94727.00;;;15.48;44.21
3968;BME280;9221;42.646;23.380;2023-03-20T08:20:54;94750.81;;;15.65;43.73
3968;BME280;9221;42.646;23.380;2023-03-20T08:23:20;94735.41;;;15.83;43.77
3968;BME280;9221;42.646;23.380;2023-03-20T08:25:47;94768.72;;;16.17;43.75
3968;BME280;9221;42.646;23.380;2023-03-20T08:28:13;94742.53;;;16.21;43.47
3968;BME280;9221;42.646;23.380;2023-03-20T08:30:38;94725.50;;;16.30;42.82
3968;BME280;9221;42.646;23.380;2023-03-20T08:33:04;94810.19;;;16.95;42.28
3968;BME280;9221;42.646;23.380;2023-03-20T08:35:29;94744.78;;;16.92;41.82
3968;BME280;9221;42.646;23.380;2023-03-20T08:37:54;94788.34;;;17.14;41.20
3968;BME280;9221;42.646;23.380;2023-03-20T08:40:20;94824.13;;;17.78;40.86
3968;BME280;9221;42.646;23.380;2023-03-20T08:42:45;94826.66;;;17.86;40.69
3968;BME280;9221;42.646;23.380;2023-03-20T08:45:11;94766.75;;;17.89;40.12
3968;BME280;9221;42.646;23.380;2023-03-20T08:47:36;94818.69;;;18.08;40.22
3968;BME280;9221;42.646;23.380;2023-03-20T08:50:02;94836.97;;;18.33;39.00
3968;BME280;9221;42.646;23.380;2023-03-20T08:52:28;94783.50;;;18.48;39.03
3968;BME280;9221;42.646;23.380;2023-03-20T08:54:53;94782.28;;;18.78;39.41
3968;BME280;9221;42.646;23.380;2023-03-20T08:57:19;94807.53;;;18.76;38.49
3968;BME280;9221;42.646;23.380;2023-03-20T08:59:44;94781.84;;;19.10;38.04
3968;BME280;9221;42.646;23.380;2023-03-20T09:02:10;94809.91;;;19.27;37.82
3968;BME280;9221;42.646;23.380;2023-03-20T09:04:36;94730.31;;;19.36;37.26
3968;BME280;9221;42.646;23.380;2023-03-20T09:07:02;94782.69;;;19.79;36.35
3968;BME280;9221;42.646;23.380;2023-03-20T09:09:28;94779.31;;;19.50;36.24
3968;BME280;9221;42.646;23.380;2023-03-20T09:11:57;94586.59;;;18.83;36.21
3968;BME280;9221;42.646;23.380;2023-03-20T09:14:23;94770.59;;;20.63;35.18
3968;BME280;9221;42.646;23.380;2023-03-20T09:16:50;94756.38;;;20.63;35.15
3968;BME280;9221;42.646;23.380;2023-03-20T09:19:16;94769.97;;;20.88;34.71
3968;BME280;9221;42.646;23.380;2023-03-20T09:21:42;94810.72;;;21.17;34.11
3968;BME280;9221;42.646;23.380;2023-03-20T09:24:07;94754.56;;;21.29;33.69
3968;BME280;9221;42.646;23.380;2023-03-20T09:26:33;94760.69;;;21.43;33.84
3968;BME280;9221;42.646;23.380;2023-03-20T09:28:58;94705.22;;;21.37;33.85
3968;BME280;9221;42.646;23.380;2023-03-20T09:31:24;94750.03;;;22.07;33.19
3968;BME280;9221;42.646;23.380;2023-03-20T09:33:50;94782.63;;;22.17;32.18
3968;BME280;9221;42.646;23.380;2023-03-20T09:36:15;94716.59;;;22.03;31.93
3968;BME280;9221;42.646;23.380;2023-03-20T09:38:41;94758.38;;;22.24;32.14
3968;BME280;9221;42.646;23.380;2023-03-20T09:41:12;94741.94;;;22.39;31.35
3968;BME280;9221;42.646;23.380;2023-03-20T09:43:57;94745.56;;;22.51;31.30
3968;BME280;9221;42.646;23.380;2023-03-20T09:49:37;94734.63;;;22.71;31.01
3968;BME280;9221;42.646;23.380;2023-03-20T09:52:31;94727.34;;;22.53;31.04
3968;BME280;9221;42.646;23.380;2023-03-20T09:55:05;94671.00;;;22.65;31.23
3968;BME280;9221;42.646;23.380;2023-03-20T09:57:48;94661.34;;;20.79;32.60
3968;BME280;9221;42.646;23.380;2023-03-20T10:00:25;94658.38;;;19.82;34.15
3968;BME280;9221;42.646;23.380;2023-03-20T10:02:57;94708.22;;;20.03;33.61
3968;BME280;9221;42.646;23.380;2023-03-20T10:05:29;94637.38;;;20.12;33.43
3968;BME280;9221;42.646;23.380;2023-03-20T10:07:58;94636.50;;;19.38;34.28
3968;BME280;9221;42.646;23.380;2023-03-20T10:13:24;94609.78;;;19.51;34.16
3968;BME280;9221;42.646;23.380;2023-03-20T10:16:04;94666.13;;;19.36;34.82
3968;BME280;9221;42.646;23.380;2023-03-20T10:18:34;94672.31;;;19.30;35.04
3968;BME280;9221;42.646;23.380;2023-03-20T10:21:34;94674.00;;;19.65;35.25
3968;BME280;9221;42.646;23.380;2023-03-20T10:24:04;94638.47;;;20.63;33.21
3968;BME280;9221;42.646;23.380;2023-03-20T10:26:33;94612.03;;;21.57;31.35
3968;BME280;9221;42.646;23.380;2023-03-20T10:29:01;94657.28;;;22.29;30.25
3968;BME280;9221;42.646;23.380;2023-03-20T10:31:49;94662.88;;;22.03;30.42
3968;BME280;9221;42.646;23.380;2023-03-20T10:39:50;94660.91;;;23.46;28.89
3968;BME280;9221;42.646;23.380;2023-03-20T10:42:29;94645.69;;;23.94;28.03
3968;BME280;9221;42.646;23.380;2023-03-20T10:47:47;94621.69;;;24.16;27.04
3968;BME280;9221;42.646;23.380;2023-03-20T10:50:17;94630.25;;;24.49;26.52
3968;BME280;9221;42.646;23.380;2023-03-20T10:52:44;94630.97;;;24.32;27.26
3968;BME280;9221;42.646;23.380;2023-03-20T10:55:15;94575.75;;;24.23;27.34
3968;BME280;9221;42.646;23.380;2023-03-20T10:57:50;94619.88;;;24.93;27.01
3968;BME280;9221;42.646;23.380;2023-03-20T11:00:24;94588.19;;;25.17;26.02
3968;BME280;9221;42.646;23.380;2023-03-20T11:02:51;94621.94;;;25.78;26.01
3968;BME280;9221;42.646;23.380;2023-03-20T11:05:29;94646.78;;;26.43;25.81
3968;BME280;9221;42.646;23.380;2023-03-20T11:08:14;94627.13;;;26.30;25.11
3968;BME280;9221;42.646;23.380;2023-03-20T11:10:42;94595.88;;;25.83;24.84
3968;BME280;9221;42.646;23.380;2023-03-20T11:16:23;94556.22;;;25.89;25.13
3968;BME280;9221;42.646;23.380;2023-03-20T11:18:51;94553.63;;;26.56;24.74
3968;BME280;9221;42.646;23.380;2023-03-20T11:21:26;94583.22;;;27.07;23.97
3968;BME280;9221;42.646;23.380;2023-03-20T11:23:53;94563.78;;;27.10;23.66
3968;BME280;9221;42.646;23.380;2023-03-20T11:26:40;94590.69;;;27.44;23.34
3968;BME280;9221;42.646;23.380;2023-03-20T11:29:11;94553.97;;;26.59;23.86
3968;BME280;9221;42.646;23.380;2023-03-20T11:31:41;94591.22;;;26.96;23.58
3968;BME280;9221;42.646;23.380;2023-03-20T11:36:36;94527.63;;;26.72;23.71
3968;BME280;9221;42.646;23.380;2023-03-20T11:39:09;94527.69;;;26.77;23.40
3968;BME280;9221;42.646;23.380;2023-03-20T11:41:50;94541.78;;;27.33;23.46
3968;BME280;9221;42.646;23.380;2023-03-20T11:44:33;94544.91;;;27.80;22.62
3968;BME280;9221;42.646;23.380;2023-03-20T11:47:09;94548.47;;;27.85;22.39
3968;BME280;9221;42.646;23.380;2023-03-20T11:49:46;94540.03;;;27.77;22.01
3968;BME280;9221;42.646;23.380;2023-03-20T11:52:18;94480.34;;;27.72;22.59
3968;BME280;9221;42.646;23.380;2023-03-20T11:54:51;94475.47;;;28.11;22.25
3968;BME280;9221;42.646;23.380;2023-03-20T12:00:19;94540.00;;;28.57;21.99
3968;BME280;9221;42.646;23.380;2023-03-20T12:02:45;94534.38;;;28.74;21.27
3968;BME280;9221;42.646;23.380;2023-03-20T12:05:18;94520.59;;;28.33;21.74
3968;BME280;9221;42.646;23.380;2023-03-20T12:07:45;94509.50;;;27.92;21.81
3968;BME280;9221;42.646;23.380;2023-03-20T12:10:13;94532.16;;;28.13;22.18
3968;BME280;9221;42.646;23.380;2023-03-20T12:12:50;94507.38;;;27.99;21.51
3968;BME280;9221;42.646;23.380;2023-03-20T12:15:33;94500.00;;;27.89;21.27
3968;BME280;9221;42.646;23.380;2023-03-20T12:24:01;94500.69;;;28.65;20.63
3968;BME280;9221;42.646;23.380;2023-03-20T12:26:38;94508.97;;;28.43;20.15
3968;BME280;9221;42.646;23.380;2023-03-20T12:32:04;94500.06;;;28.47;20.16
3968;BME280;9221;42.646;23.380;2023-03-20T12:35:14;94496.56;;;28.62;19.85
3968;BME280;9221;42.646;23.380;2023-03-20T12:37:37;94446.56;;;28.32;20.05
3968;BME280;9221;42.646;23.380;2023-03-20T12:40:02;94500.38;;;28.56;19.72
3968;BME280;9221;42.646;23.380;2023-03-20T12:45:20;94482.47;;;28.60;19.95
3968;BME280;9221;42.646;23.380;2023-03-20T12:48:08;94472.75;;;28.69;20.08
3968;BME280;9221;42.646;23.380;2023-03-20T12:50:44;94443.72;;;28.70;19.93
3968;BME280;9221;42.646;23.380;2023-03-20T13:01:24;94428.34;;;28.23;19.64
3968;BME280;9221;42.646;23.380;2023-03-20T13:09:56;94458.47;;;27.41;20.95
3968;BME280;9221;42.646;23.380;2023-03-20T13:15:30;94499.88;;;26.15;21.22
3968;BME280;9221;42.646;23.380;2023-03-20T13:18:11;94427.44;;;25.78;21.80
3968;BME280;9221;42.646;23.380;2023-03-20T13:20:50;94388.63;;;25.45;22.07
3968;BME280;9221;42.646;23.380;2023-03-20T13:31:26;94409.00;;;24.39;22.34
3968;BME280;9221;42.646;23.380;2023-03-20T13:37:39;94229.50;;;22.98;22.84
3968;BME280;9221;42.646;23.380;2023-03-20T13:42:35;94356.91;;;23.92;22.41
3968;BME280;9221;42.646;23.380;2023-03-20T13:45:07;94338.56;;;23.65;22.27
3968;BME280;9221;42.646;23.380;2023-03-20T13:47:42;94344.22;;;22.81;21.90
3968;BME280;9221;42.646;23.380;2023-03-20T13:50:33;94395.00;;;23.25;22.37
3968;BME280;9221;42.646;23.380;2023-03-20T13:58:40;94386.25;;;23.29;22.59
3968;BME280;9221;42.646;23.380;2023-03-20T14:01:28;94377.72;;;23.32;22.33
3968;BME280;9221;42.646;23.380;2023-03-20T14:03:56;94238.91;;;22.37;22.82
3968;BME280;9221;42.646;23.380;2023-03-20T14:08:53;94382.25;;;22.96;22.49
3968;BME280;9221;42.646;23.380;2023-03-20T14:14:13;94344.34;;;22.86;22.20
3968;BME280;9221;42.646;23.380;2023-03-20T14:16:39;94374.16;;;23.08;22.79
3968;BME280;9221;42.646;23.380;2023-03-20T14:21:30;94311.50;;;22.72;22.87
3968;BME280;9221;42.646;23.380;2023-03-20T14:24:10;94354.53;;;23.08;23.13
3968;BME280;9221;42.646;23.380;2023-03-20T14:26:38;94317.94;;;22.83;22.91
3968;BME280;9221;42.646;23.380;2023-03-20T14:31:39;94350.19;;;23.07;22.42
3968;BME280;9221;42.646;23.380;2023-03-20T14:36:59;94350.78;;;22.97;23.33
3968;BME280;9221;42.646;23.380;2023-03-20T14:39:53;94258.28;;;22.39;23.07
3968;BME280;9221;42.646;23.380;2023-03-20T14:42:42;94345.03;;;22.70;22.71
3968;BME280;9221;42.646;23.380;2023-03-20T14:48:03;94344.56;;;22.73;23.13
3968;BME280;9221;42.646;23.380;2023-03-20T14:50:38;94340.56;;;22.63;23.56
3968;BME280;9221;42.646;23.380;2023-03-20T14:53:21;94286.13;;;22.14;23.70
3968;BME280;9221;42.646;23.380;2023-03-20T14:56:06;94334.47;;;22.56;23.32
3968;BME280;9221;42.646;23.380;2023-03-20T15:03:51;94333.31;;;22.52;23.62
3968;BME280;9221;42.646;23.380;2023-03-20T15:06:19;94355.38;;;22.42;23.34
3968;BME280;9221;42.646;23.380;2023-03-20T15:09:07;94337.50;;;22.48;23.25
3968;BME280;9221;42.646;23.380;2023-03-20T15:11:34;94346.50;;;22.42;23.40
3968;BME280;9221;42.646;23.380;2023-03-20T15:14:03;94282.34;;;22.03;23.93
3968;BME280;9221;42.646;23.380;2023-03-20T15:16:32;94341.88;;;22.30;24.14
3968;BME280;9221;42.646;23.380;2023-03-20T15:18:58;94402.03;;;22.29;24.35
3968;BME280;9221;42.646;23.380;2023-03-20T15:21:34;94362.66;;;22.23;24.73
3968;BME280;9221;42.646;23.380;2023-03-20T15:24:00;94302.94;;;21.79;24.17
3968;BME280;9221;42.646;23.380;2023-03-20T15:26:26;94286.94;;;21.72;24.59
3968;BME280;9221;42.646;23.380;2023-03-20T15:29:03;94341.81;;;22.07;24.43
3968;BME280;9221;42.646;23.380;2023-03-20T15:31:31;94275.31;;;21.60;24.37
3968;BME280;9221;42.646;23.380;2023-03-20T15:33:58;94320.81;;;21.85;24.86
3968;BME280;9221;42.646;23.380;2023-03-20T15:36:27;94267.03;;;21.43;25.15
3968;BME280;9221;42.646;23.380;2023-03-20T15:39:13;94336.97;;;21.67;25.39
3968;BME280;9221;42.646;23.380;2023-03-20T15:41:44;94191.09;;;20.75;24.98